createdAt,value
2019-03-13T00:01:34.835Z,71.19
2019-03-13T00:04:05.713Z,71.62
2019-03-13T00:06:37.999Z,71.60
2019-03-13T00:09:13.187Z,71.79
2019-03-13T00:11:44.250Z,71.97
2019-03-13T00:14:14.870Z,72.28
2019-03-13T00:16:45.642Z,72.43
2019-03-13T00:19:16.546Z,72.52
2019-03-13T00:21:48.248Z,72.60
2019-03-13T00:24:18.989Z,73.01
2019-03-13T00:26:49.889Z,73.52
2019-03-13T00:29:20.488Z,74.05
2019-03-13T00:31:51.485Z,74.43
2019-03-13T00:34:22.267Z,74.51
2019-03-13T00:36:53.016Z,74.48
2019-03-13T00:39:27.058Z,74.21
2019-03-13T00:41:57.710Z,74.39
2019-03-13T00:44:28.479Z,74.42
2019-03-13T00:47:00.312Z,74.11
2019-03-13T00:49:31.143Z,73.83
2019-03-13T00:52:02.024Z,73.83
2019-03-13T00:54:32.758Z,73.81
2019-03-13T00:57:03.870Z,73.53
2019-03-13T00:59:34.440Z,73.37
2019-03-13T01:02:27.215Z,73.59
2019-03-13T01:05:25.783Z,73.84
2019-03-13T01:07:58.137Z,73.74
2019-03-13T01:10:28.872Z,73.91
2019-03-13T01:12:59.633Z,74.21
2019-03-13T01:15:30.431Z,74.44
2019-03-13T01:18:01.347Z,74.79
2019-03-13T01:20:32.015Z,75.18
2019-03-13T01:23:02.932Z,75.57
2019-03-13T01:25:33.667Z,75.59
2019-03-13T01:28:05.985Z,75.73
2019-03-13T01:30:48.536Z,75.95
2019-03-13T01:33:20.284Z,75.79
2019-03-13T01:35:56.025Z,75.76
2019-03-13T01:38:26.614Z,75.72
2019-03-13T01:40:57.523Z,75.59
2019-03-13T01:43:28.317Z,75.43
2019-03-13T01:46:00.162Z,75.32
2019-03-13T01:48:31.032Z,75.13
2019-03-13T01:51:02.107Z,74.61
2019-03-13T01:53:33.364Z,73.92
2019-03-13T01:56:03.943Z,73.35
2019-03-13T01:58:34.767Z,72.94
2019-03-13T02:01:07.291Z,72.75
2019-03-13T02:03:38.076Z,72.55
2019-03-13T02:06:09.226Z,72.45
2019-03-13T02:08:39.876Z,72.58
2019-03-13T02:11:11.026Z,72.40
2019-03-13T02:13:42.297Z,72.27
2019-03-13T02:16:12.854Z,72.10
2019-03-13T02:18:43.408Z,72.07
2019-03-13T02:21:15.734Z,71.99
2019-03-13T02:23:46.615Z,72.04
2019-03-13T02:26:18.769Z,72.08
2019-03-13T02:28:50.029Z,72.09
2019-03-13T02:31:20.787Z,71.94
2019-03-13T02:33:51.763Z,72.10
2019-03-13T02:36:22.352Z,71.94
2019-03-13T02:38:53.064Z,72.16
2019-03-13T02:41:24.362Z,71.75
2019-03-13T02:43:55.100Z,71.94
2019-03-13T02:46:25.799Z,71.84
2019-03-13T02:48:56.554Z,71.79
2019-03-13T02:51:27.250Z,71.71
2019-03-13T02:53:58.415Z,71.83
2019-03-13T02:56:30.757Z,71.98
2019-03-13T02:59:01.508Z,71.65
2019-03-13T03:01:51.027Z,71.63
2019-03-13T03:04:21.905Z,71.14
2019-03-13T03:06:52.740Z,70.57
2019-03-13T03:09:23.599Z,70.10
2019-03-13T03:11:54.399Z,69.98
2019-03-13T03:14:26.653Z,69.56
2019-03-13T03:16:57.509Z,69.23
2019-03-13T03:19:31.695Z,69.06
2019-03-13T03:22:02.451Z,68.78
2019-03-13T03:24:34.255Z,68.93
2019-03-13T03:27:04.904Z,68.61
2019-03-13T03:29:38.917Z,68.55
2019-03-13T03:32:09.118Z,68.50
2019-03-13T03:34:39.921Z,68.39
2019-03-13T03:37:10.588Z,68.82
2019-03-13T03:39:41.514Z,69.13
2019-03-13T03:42:12.112Z,69.39
2019-03-13T03:44:42.685Z,69.66
2019-03-13T03:47:13.139Z,69.91
2019-03-13T03:49:44.282Z,70.70
2019-03-13T03:52:14.893Z,71.00
2019-03-13T03:54:45.606Z,71.43
2019-03-13T03:57:16.539Z,72.31
2019-03-13T03:59:49.260Z,73.03
2019-03-13T04:02:19.995Z,73.70
2019-03-13T04:04:50.851Z,74.11
2019-03-13T04:07:21.678Z,74.43
2019-03-13T04:09:52.353Z,74.54
2019-03-13T04:12:23.077Z,74.46
2019-03-13T04:14:54.203Z,74.33
2019-03-13T04:17:24.929Z,74.43
2019-03-13T04:19:55.644Z,74.48
2019-03-13T04:22:26.308Z,74.82
2019-03-13T04:25:11.106Z,75.03
2019-03-13T04:27:41.953Z,74.86
2019-03-13T04:30:15.327Z,75.05
2019-03-13T04:32:47.042Z,75.11
2019-03-13T04:35:18.000Z,75.25
2019-03-13T04:37:48.819Z,75.47
2019-03-13T04:40:19.628Z,75.15
2019-03-13T04:42:50.364Z,75.29
2019-03-13T04:45:22.212Z,75.15
2019-03-13T04:47:52.816Z,74.78
2019-03-13T04:50:24.083Z,74.57
2019-03-13T04:52:55.377Z,73.84
2019-03-13T04:55:27.582Z,73.44
2019-03-13T04:57:58.685Z,72.97
2019-03-13T05:00:30.169Z,72.41
2019-03-13T05:03:01.193Z,72.01
2019-03-13T05:05:48.370Z,71.75
2019-03-13T05:08:26.604Z,71.65
2019-03-13T05:10:58.472Z,71.47
2019-03-13T05:13:29.206Z,70.84
2019-03-13T05:16:00.105Z,70.75
2019-03-13T05:18:30.887Z,70.33
2019-03-13T05:21:01.916Z,69.69
2019-03-13T05:23:32.695Z,69.29
2019-03-13T05:26:03.515Z,69.00
2019-03-13T05:28:34.429Z,69.31
2019-03-13T05:31:05.620Z,68.61
2019-03-13T05:33:36.707Z,68.63
2019-03-13T05:36:07.665Z,68.31
2019-03-13T05:38:38.547Z,68.08
2019-03-13T05:41:10.580Z,67.60
2019-03-13T05:43:41.554Z,67.38
2019-03-13T05:46:13.009Z,66.51
2019-03-13T05:48:43.775Z,65.32
2019-03-13T05:51:16.455Z,63.41
2019-03-13T05:53:48.839Z,61.94
2019-03-13T05:56:19.928Z,61.73
2019-03-13T05:58:52.116Z,61.22
2019-03-13T06:01:22.984Z,60.27
2019-03-13T06:03:53.685Z,58.65
2019-03-13T06:06:26.065Z,56.25
2019-03-13T06:08:57.564Z,56.01
2019-03-13T06:11:28.259Z,54.57
2019-03-13T06:13:59.086Z,52.70
2019-03-13T06:16:30.019Z,51.65
2019-03-13T06:19:00.758Z,51.05
2019-03-13T06:21:55.688Z,51.39
2019-03-13T06:24:26.673Z,51.36
2019-03-13T06:26:57.587Z,51.66
2019-03-13T06:29:31.590Z,51.38
2019-03-13T06:32:00.941Z,51.50
2019-03-13T06:34:31.618Z,49.86
2019-03-13T06:37:02.451Z,50.55
2019-03-13T06:39:33.138Z,49.44
2019-03-13T06:42:04.104Z,49.78
2019-03-13T06:44:35.215Z,51.06
2019-03-13T06:47:05.531Z,49.62
2019-03-13T06:49:36.633Z,49.71
2019-03-13T06:52:08.333Z,54.68
2019-03-13T06:54:38.866Z,54.68
2019-03-13T06:57:09.524Z,56.98
2019-03-13T06:59:57.697Z,58.55
2019-03-13T07:02:41.221Z,59.33
2019-03-13T07:05:30.491Z,60.10
2019-03-13T07:08:27.659Z,58.60
2019-03-13T07:11:15.181Z,59.30
2019-03-13T07:14:05.414Z,59.49
2019-03-13T07:17:07.228Z,60.15
2019-03-13T07:20:02.971Z,59.33
2019-03-13T07:22:50.789Z,58.37
2019-03-13T07:25:52.716Z,58.72
2019-03-13T07:28:41.826Z,58.06
2019-03-13T07:31:23.457Z,57.50
2019-03-13T07:34:08.071Z,56.50
2019-03-13T07:36:50.938Z,56.93
2019-03-13T07:40:10.791Z,55.53
2019-03-13T07:42:54.341Z,55.98
2019-03-13T07:45:43.474Z,55.39
2019-03-13T07:48:32.537Z,55.37
2019-03-13T07:51:11.168Z,54.57
2019-03-13T07:53:53.050Z,55.35
2019-03-13T07:56:45.116Z,54.79
2019-03-13T07:59:23.518Z,55.98
2019-03-13T08:02:13.392Z,57.00
2019-03-13T08:04:56.522Z,56.09
2019-03-13T08:07:51.118Z,56.77
2019-03-13T08:10:40.588Z,55.97
2019-03-13T08:13:29.750Z,56.32
2019-03-13T08:16:17.594Z,56.44
2019-03-13T08:19:05.535Z,56.86
2019-03-13T08:21:53.771Z,57.33
2019-03-13T08:24:46.222Z,56.69
2019-03-13T08:27:38.518Z,57.30
2019-03-13T08:30:43.502Z,56.71
2019-03-13T08:33:45.162Z,56.89
2019-03-13T08:36:40.510Z,56.51
2019-03-13T08:39:16.914Z,57.09
2019-03-13T08:42:04.914Z,57.20
2019-03-13T08:44:56.917Z,57.68
2019-03-13T08:47:35.526Z,56.01
2019-03-13T08:50:31.263Z,57.39
2019-03-13T08:53:19.824Z,56.83
2019-03-13T08:55:58.324Z,57.75
2019-03-13T08:58:50.264Z,56.66
2019-03-13T09:01:39.632Z,58.46
2019-03-13T09:04:26.250Z,57.14
2019-03-13T09:07:17.876Z,57.14
2019-03-13T09:09:54.457Z,57.07
2019-03-13T09:12:46.559Z,56.02
2019-03-13T09:15:36.151Z,55.56
2019-03-13T09:18:43.648Z,55.90
2019-03-13T09:21:26.464Z,55.77
2019-03-13T09:24:12.972Z,55.50
2019-03-13T09:26:59.474Z,55.55
2019-03-13T09:29:49.268Z,53.37
2019-03-13T09:32:45.909Z,53.33
2019-03-13T09:35:46.984Z,54.68
2019-03-13T09:38:44.934Z,55.74
2019-03-13T09:41:33.170Z,55.25
2019-03-13T09:44:29.295Z,55.44
2019-03-13T09:47:08.657Z,56.16
2019-03-13T09:49:58.122Z,54.70
2019-03-13T09:52:55.802Z,54.35
2019-03-13T09:55:44.042Z,55.72
2019-03-13T09:58:40.667Z,55.38
2019-03-13T10:01:28.842Z,54.78
2019-03-13T10:04:17.181Z,54.74
2019-03-13T10:07:01.906Z,54.83
2019-03-13T10:09:52.428Z,55.26
2019-03-13T10:12:33.397Z,55.14
2019-03-13T10:15:22.577Z,54.57
2019-03-13T10:18:19.525Z,54.19
2019-03-13T10:21:07.444Z,53.95
2019-03-13T10:24:07.296Z,54.54
2019-03-13T10:27:02.912Z,55.29
2019-03-13T10:29:55.021Z,54.97
2019-03-13T10:32:42.870Z,54.09
2019-03-13T10:35:30.794Z,53.67
2019-03-13T10:38:32.494Z,53.87
2019-03-13T10:41:12.402Z,54.72
2019-03-13T10:44:01.568Z,53.81
2019-03-13T10:46:47.180Z,56.19
2019-03-13T10:49:36.858Z,55.79
2019-03-13T10:52:30.821Z,55.00
2019-03-13T10:55:08.460Z,58.24
2019-03-13T10:58:00.567Z,56.49
2019-03-13T11:00:58.946Z,55.84
2019-03-13T11:03:54.269Z,56.39
2019-03-13T11:06:54.970Z,56.52
2019-03-13T11:09:26.683Z,56.95
2019-03-13T11:12:02.732Z,57.50
2019-03-13T11:14:50.978Z,58.62
2019-03-13T11:17:40.651Z,62.06
2019-03-13T11:20:38.214Z,63.81
2019-03-13T11:23:43.663Z,62.51
2019-03-13T11:26:32.011Z,64.45
2019-03-13T11:29:22.724Z,63.57
2019-03-13T11:32:12.217Z,63.38
2019-03-13T11:34:49.768Z,62.88
2019-03-13T11:37:39.258Z,63.34
2019-03-13T11:40:23.214Z,62.77
2019-03-13T11:43:07.742Z,63.17
2019-03-13T11:45:54.143Z,62.15
2019-03-13T11:48:43.430Z,62.33
2019-03-13T11:51:49.169Z,61.38
2019-03-13T11:54:36.213Z,62.19
2019-03-13T11:57:21.802Z,63.42
2019-03-13T12:00:02.063Z,63.34
2019-03-13T12:02:57.667Z,63.75
2019-03-13T12:05:53.892Z,63.86
2019-03-13T12:08:41.757Z,63.50
2019-03-13T12:11:40.436Z,63.91
2019-03-13T12:14:36.253Z,63.46
2019-03-13T12:17:23.978Z,63.27
2019-03-13T12:20:06.391Z,62.56
2019-03-13T12:23:14.198Z,64.04
2019-03-13T12:26:03.510Z,62.50
2019-03-13T12:28:46.909Z,61.62
2019-03-13T12:31:54.920Z,61.04
2019-03-13T12:35:02.809Z,62.25
2019-03-13T12:37:55.574Z,62.70
2019-03-13T12:40:38.636Z,62.34
2019-03-13T12:43:25.753Z,61.80
2019-03-13T12:46:15.715Z,60.98
2019-03-13T12:49:08.622Z,61.79
2019-03-13T12:51:53.225Z,60.28
2019-03-13T12:54:58.366Z,63.21
2019-03-13T12:57:54.397Z,62.24
2019-03-13T13:00:33.420Z,63.41
2019-03-13T13:03:17.175Z,62.42
2019-03-13T13:06:02.052Z,62.86
2019-03-13T13:09:03.886Z,61.93
2019-03-13T13:11:53.364Z,61.26
2019-03-13T13:14:42.335Z,62.30
2019-03-13T13:17:35.791Z,62.87
2019-03-13T13:20:07.392Z,63.48
2019-03-13T13:22:37.942Z,62.54
2019-03-13T13:25:09.727Z,63.10
2019-03-13T13:27:40.388Z,61.91
2019-03-13T13:30:12.146Z,61.88
2019-03-13T13:32:43.008Z,61.96
2019-03-13T13:35:14.058Z,61.66
2019-03-13T13:37:44.735Z,61.26
2019-03-13T13:40:15.673Z,60.42
2019-03-13T13:42:46.476Z,60.80
2019-03-13T13:45:47.365Z,62.27
2019-03-13T13:48:17.854Z,61.28
2019-03-13T13:50:48.301Z,60.61
2019-03-13T13:53:18.819Z,61.99
2019-03-13T13:55:49.472Z,62.78
2019-03-13T13:58:20.026Z,63.69
2019-03-13T14:00:50.676Z,62.18
2019-03-13T14:03:23.030Z,62.83
2019-03-13T14:05:53.789Z,61.65
2019-03-13T14:08:25.459Z,63.40
2019-03-13T14:10:56.290Z,63.20
2019-03-13T14:13:27.396Z,65.04
2019-03-13T14:15:58.244Z,65.03
2019-03-13T14:18:29.437Z,65.12
2019-03-13T14:21:00.181Z,66.19
2019-03-13T14:23:30.774Z,66.43
2019-03-13T14:26:01.516Z,67.08
2019-03-13T14:28:31.969Z,67.52
2019-03-13T14:31:03.598Z,68.02
2019-03-13T14:33:33.956Z,68.03
2019-03-13T14:36:04.657Z,67.86
2019-03-13T14:38:35.149Z,67.17
2019-03-13T14:41:06.248Z,68.10
2019-03-13T14:43:36.902Z,68.08
2019-03-13T14:46:07.712Z,67.92
2019-03-13T14:48:38.360Z,68.21
2019-03-13T14:51:09.117Z,67.95
2019-03-13T14:53:40.211Z,68.19
2019-03-13T14:56:10.940Z,67.87
2019-03-13T14:58:41.414Z,68.08
2019-03-13T15:01:12.168Z,67.70
2019-03-13T15:03:42.743Z,67.47
2019-03-13T15:06:13.416Z,67.94
2019-03-13T15:08:44.274Z,68.29
2019-03-13T15:11:15.138Z,68.60
2019-03-13T15:13:45.698Z,69.27
2019-03-13T15:16:16.368Z,69.43
2019-03-13T15:18:47.342Z,69.45
2019-03-13T15:21:18.019Z,69.19
2019-03-13T15:23:48.908Z,69.28
2019-03-13T15:26:19.574Z,68.22
2019-03-13T15:28:50.113Z,68.78
2019-03-13T15:31:21.182Z,68.77
2019-03-13T15:33:52.114Z,68.10
2019-03-13T15:36:22.777Z,68.20
2019-03-13T15:38:54.286Z,68.04
2019-03-13T15:41:24.948Z,68.53
2019-03-13T15:43:55.818Z,68.53
2019-03-13T15:46:26.603Z,68.85
2019-03-13T15:48:57.418Z,68.83
2019-03-13T15:51:27.987Z,68.20
2019-03-13T15:53:59.826Z,67.98
2019-03-13T15:56:30.791Z,67.95
2019-03-13T15:59:01.994Z,68.03
2019-03-13T16:01:32.428Z,67.99
2019-03-13T16:04:03.251Z,67.59
2019-03-13T16:06:35.743Z,67.94
2019-03-13T16:09:08.305Z,67.93
2019-03-13T16:11:38.850Z,68.04
2019-03-13T16:14:10.874Z,67.72
2019-03-13T16:16:41.797Z,67.68
2019-03-13T16:19:12.271Z,68.04
2019-03-13T16:21:44.200Z,68.62
2019-03-13T16:24:14.568Z,68.77
2019-03-13T16:26:45.021Z,68.85
2019-03-13T16:29:17.255Z,68.39
2019-03-13T16:31:48.274Z,68.40
2019-03-13T16:34:18.730Z,68.08
2019-03-13T16:36:49.558Z,68.12
2019-03-13T16:39:20.077Z,67.66
2019-03-13T16:41:51.303Z,68.02
2019-03-13T16:44:22.301Z,68.43
2019-03-13T16:49:58.765Z,67.87
2019-03-13T16:52:29.390Z,68.24
2019-03-13T16:54:59.813Z,68.20
2019-03-13T16:57:30.776Z,68.49
2019-03-13T17:00:01.645Z,68.46
2019-03-13T17:02:32.740Z,68.40
2019-03-13T17:05:03.277Z,68.60
2019-03-13T17:07:33.931Z,68.68
2019-03-13T17:10:05.746Z,68.70
2019-03-13T17:12:37.193Z,68.46
2019-03-13T17:15:10.260Z,68.39
2019-03-13T17:17:41.045Z,68.33
2019-03-13T17:20:14.288Z,68.37
2019-03-13T17:22:46.071Z,68.62
2019-03-13T17:25:19.319Z,68.68
2019-03-13T17:27:50.275Z,68.49
2019-03-13T17:30:22.541Z,68.65
2019-03-13T17:32:53.366Z,68.72
2019-03-13T17:35:24.008Z,68.86
2019-03-13T17:37:54.574Z,68.97
2019-03-13T17:40:25.981Z,68.92
2019-03-13T17:42:56.831Z,68.87
2019-03-13T17:45:27.766Z,68.58
2019-03-13T17:47:59.293Z,68.29
2019-03-13T17:50:30.240Z,68.41
2019-03-13T17:53:01.076Z,68.40
2019-03-13T17:55:31.773Z,68.31
2019-03-13T17:58:05.783Z,68.35
2019-03-13T18:00:42.817Z,68.54
2019-03-13T18:03:13.772Z,68.50
2019-03-13T18:05:44.224Z,68.63
2019-03-13T18:08:15.204Z,68.64
2019-03-13T18:10:45.984Z,69.04
2019-03-13T18:13:16.782Z,69.47
2019-03-13T18:15:47.835Z,69.31
2019-03-13T18:18:20.311Z,69.63
2019-03-13T18:20:51.432Z,69.70
2019-03-13T18:23:23.519Z,69.71
2019-03-13T18:25:55.374Z,69.83
2019-03-13T18:28:28.377Z,69.86
2019-03-13T18:31:01.803Z,70.06
2019-03-13T18:33:31.601Z,70.16
2019-03-13T18:36:02.378Z,70.26
2019-03-13T18:38:33.627Z,70.05
2019-03-13T18:41:04.153Z,70.29
2019-03-13T18:43:34.790Z,70.35
2019-03-13T18:46:06.972Z,70.53
2019-03-13T18:48:39.004Z,70.51
2019-03-13T18:51:13.512Z,70.45
2019-03-13T18:53:43.961Z,70.73
2019-03-13T18:56:15.030Z,71.03
2019-03-13T18:58:45.877Z,71.12
2019-03-13T19:01:16.874Z,71.24
2019-03-13T19:03:47.550Z,71.16
2019-03-13T19:06:18.128Z,70.87
2019-03-13T19:08:49.628Z,70.81
2019-03-13T19:11:20.424Z,70.53
2019-03-13T19:13:53.146Z,70.60
2019-03-13T19:16:23.882Z,70.65
2019-03-13T19:18:55.020Z,70.74
2019-03-13T19:21:25.857Z,70.36
2019-03-13T19:23:56.498Z,70.25
2019-03-13T19:26:27.122Z,70.16
2019-03-13T19:29:01.249Z,69.92
2019-03-13T19:31:30.602Z,69.67
2019-03-13T19:34:01.286Z,69.50
2019-03-13T19:36:32.262Z,69.15
2019-03-13T19:39:03.530Z,69.23
2019-03-13T19:41:35.930Z,69.32
2019-03-13T19:44:06.608Z,69.01
2019-03-13T19:46:37.479Z,68.86
2019-03-13T19:49:08.422Z,68.85
2019-03-13T19:51:40.232Z,68.87
2019-03-13T19:54:11.985Z,68.89
2019-03-13T19:56:43.057Z,68.92
2019-03-13T19:59:14.519Z,68.92
2019-03-13T20:01:45.372Z,69.07
2019-03-13T20:04:16.128Z,69.97
2019-03-13T20:06:47.289Z,69.12
2019-03-13T20:09:17.896Z,69.05
2019-03-13T20:11:52.914Z,69.12
2019-03-13T20:14:23.741Z,69.25
2019-03-13T20:16:54.097Z,69.30
2019-03-13T20:19:24.745Z,69.32
2019-03-13T20:21:55.855Z,69.36
2019-03-13T20:24:26.562Z,69.32
2019-03-13T20:26:57.412Z,69.43
2019-03-13T20:29:27.830Z,69.58
2019-03-13T20:31:58.296Z,69.59
2019-03-13T20:34:29.156Z,69.74
2019-03-13T20:36:59.601Z,69.89
2019-03-13T20:39:30.305Z,69.65
2019-03-13T20:42:00.681Z,69.65
2019-03-13T20:44:31.380Z,69.56
2019-03-13T20:47:01.954Z,69.52
2019-03-13T20:49:32.702Z,69.43
2019-03-13T20:52:04.359Z,69.40
2019-03-13T20:54:35.059Z,69.46
2019-03-13T20:57:05.740Z,69.89
2019-03-13T20:59:36.525Z,70.01
2019-03-13T21:02:07.580Z,70.14
2019-03-13T21:04:38.767Z,70.30
2019-03-13T21:07:09.414Z,70.60
2019-03-13T21:09:39.758Z,70.51
2019-03-13T21:12:10.710Z,70.63
2019-03-13T21:14:41.103Z,70.63
2019-03-13T21:17:11.635Z,70.57
2019-03-13T21:19:43.262Z,70.71
2019-03-13T21:22:13.691Z,70.97
2019-03-13T21:24:44.429Z,71.31
2019-03-13T21:27:15.126Z,71.28
2019-03-13T21:29:45.482Z,71.20
2019-03-13T21:32:16.371Z,71.23
2019-03-13T21:34:47.447Z,71.43
2019-03-13T21:37:17.916Z,71.73
2019-03-13T21:39:48.532Z,71.73
2019-03-13T21:42:21.360Z,71.94
2019-03-13T21:44:52.217Z,72.16
2019-03-13T21:47:22.875Z,72.96
2019-03-13T21:49:53.601Z,73.26
2019-03-13T21:52:24.483Z,73.59
2019-03-13T21:54:55.229Z,73.29
2019-03-13T21:57:26.312Z,73.36
2019-03-13T21:59:57.086Z,73.06
2019-03-13T22:02:32.891Z,73.11
2019-03-13T22:05:00.381Z,72.59
2019-03-13T22:07:31.325Z,71.95
2019-03-13T22:10:03.782Z,72.17
2019-03-13T22:12:34.460Z,71.82
2019-03-13T22:15:05.220Z,71.63
2019-03-13T22:17:36.118Z,72.05
2019-03-13T22:20:07.235Z,71.92
2019-03-13T22:22:39.177Z,72.04
2019-03-13T22:25:10.366Z,72.10
2019-03-13T22:27:41.221Z,72.28
2019-03-13T22:30:15.169Z,72.48
2019-03-13T22:32:45.902Z,72.82
2019-03-13T22:35:17.435Z,73.29
2019-03-13T22:37:48.384Z,72.82
2019-03-13T22:40:19.171Z,73.00
2019-03-13T22:42:51.239Z,73.10
2019-03-13T22:45:22.534Z,73.00
2019-03-13T22:47:53.592Z,72.66
2019-03-13T22:50:24.214Z,72.83
2019-03-13T22:52:55.094Z,72.46
2019-03-13T22:55:26.296Z,72.34
2019-03-13T22:57:57.090Z,72.91
2019-03-13T23:00:52.598Z,72.99
2019-03-13T23:03:23.824Z,73.17
2019-03-13T23:05:55.116Z,73.49
2019-03-13T23:08:26.034Z,73.62
2019-03-13T23:10:56.838Z,73.39
2019-03-13T23:13:28.167Z,73.48
2019-03-13T23:16:00.230Z,73.78
2019-03-13T23:18:31.228Z,74.02
2019-03-13T23:21:04.286Z,74.20
2019-03-13T23:23:35.038Z,74.24
2019-03-13T23:26:05.953Z,74.22
2019-03-13T23:28:36.802Z,74.21
2019-03-13T23:31:10.037Z,74.24
2019-03-13T23:33:40.826Z,74.23
2019-03-13T23:36:11.426Z,74.33
2019-03-13T23:38:43.311Z,74.42
2019-03-13T23:41:14.661Z,74.60
2019-03-13T23:43:45.647Z,74.55
2019-03-13T23:46:16.395Z,74.78
2019-03-13T23:48:47.094Z,75.25
2019-03-13T23:51:18.108Z,75.18
2019-03-13T23:53:49.660Z,75.23
2019-03-13T23:56:20.449Z,75.16
2019-03-13T23:58:51.389Z,75.29
